sensor_id;sensor_type;location;lat;lon;timestamp;P1;durP1;ratioP1;P2;durP2;ratioP2
21539;SDS011;10931;52.164;5.518;2024-02-28T00:02:02;60.92;;;23.65;;
21539;SDS011;10931;52.164;5.518;2024-02-28T00:04:28;62.65;;;23.98;;
21539;SDS011;10931;52.164;5.518;2024-02-28T00:06:54;68.45;;;26.02;;
21539;SDS011;10931;52.164;5.518;2024-02-28T00:09:20;64.50;;;24.35;;
21539;SDS011;10931;52.164;5.518;2024-02-28T00:11:49;60.38;;;25.08;;
21539;SDS011;10931;52.164;5.518;2024-02-28T00:14:16;64.32;;;25.42;;
21539;SDS011;10931;52.164;5.518;2024-02-28T00:16:43;59.58;;;23.75;;
21539;SDS011;10931;52.164;5.518;2024-02-28T00:19:12;67.38;;;24.15;;
21539;SDS011;10931;52.164;5.518;2024-02-28T00:21:38;61.75;;;23.75;;
21539;SDS011;10931;52.164;5.518;2024-02-28T00:24:07;60.72;;;24.25;;
21539;SDS011;10931;52.164;5.518;2024-02-28T00:26:35;65.15;;;25.63;;
21539;SDS011;10931;52.164;5.518;2024-02-28T00:29:01;61.40;;;23.10;;
21539;SDS011;10931;52.164;5.518;2024-02-28T00:31:30;65.78;;;24.27;;
21539;SDS011;10931;52.164;5.518;2024-02-28T00:34:03;61.38;;;24.77;;
21539;SDS011;10931;52.164;5.518;2024-02-28T00:36:29;60.33;;;23.92;;
21539;SDS011;10931;52.164;5.518;2024-02-28T00:38:56;68.38;;;25.20;;
21539;SDS011;10931;52.164;5.518;2024-02-28T00:41:22;66.30;;;24.58;;
21539;SDS011;10931;52.164;5.518;2024-02-28T00:43:48;63.15;;;24.90;;
21539;SDS011;10931;52.164;5.518;2024-02-28T00:46:14;59.28;;;25.15;;
21539;SDS011;10931;52.164;5.518;2024-02-28T00:48:40;60.63;;;23.20;;
21539;SDS011;10931;52.164;5.518;2024-02-28T00:51:07;63.85;;;24.27;;
21539;SDS011;10931;52.164;5.518;2024-02-28T00:53:36;65.10;;;24.92;;
21539;SDS011;10931;52.164;5.518;2024-02-28T00:56:03;61.75;;;25.30;;
21539;SDS011;10931;52.164;5.518;2024-02-28T00:58:29;63.20;;;24.40;;
21539;SDS011;10931;52.164;5.518;2024-02-28T01:00:56;64.57;;;25.25;;
21539;SDS011;10931;52.164;5.518;2024-02-28T01:03:24;61.08;;;23.40;;
21539;SDS011;10931;52.164;5.518;2024-02-28T01:05:50;65.07;;;24.88;;
21539;SDS011;10931;52.164;5.518;2024-02-28T01:08:16;61.88;;;23.35;;
21539;SDS011;10931;52.164;5.518;2024-02-28T01:10:45;61.22;;;23.70;;
21539;SDS011;10931;52.164;5.518;2024-02-28T01:13:11;61.58;;;25.63;;
21539;SDS011;10931;52.164;5.518;2024-02-28T01:15:40;65.75;;;24.13;;
21539;SDS011;10931;52.164;5.518;2024-02-28T01:18:07;59.80;;;24.85;;
21539;SDS011;10931;52.164;5.518;2024-02-28T01:20:33;59.88;;;22.85;;
21539;SDS011;10931;52.164;5.518;2024-02-28T01:22:59;65.10;;;25.40;;
21539;SDS011;10931;52.164;5.518;2024-02-28T01:25:25;59.47;;;24.08;;
21539;SDS011;10931;52.164;5.518;2024-02-28T01:27:51;59.67;;;22.80;;
21539;SDS011;10931;52.164;5.518;2024-02-28T01:30:17;62.85;;;23.52;;
21539;SDS011;10931;52.164;5.518;2024-02-28T01:32:45;58.40;;;24.27;;
21539;SDS011;10931;52.164;5.518;2024-02-28T01:35:16;55.08;;;22.75;;
21539;SDS011;10931;52.164;5.518;2024-02-28T01:37:42;57.25;;;22.95;;
21539;SDS011;10931;52.164;5.518;2024-02-28T01:40:08;56.78;;;23.42;;
21539;SDS011;10931;52.164;5.518;2024-02-28T01:42:37;58.72;;;23.50;;
21539;SDS011;10931;52.164;5.518;2024-02-28T01:45:06;56.58;;;23.10;;
21539;SDS011;10931;52.164;5.518;2024-02-28T01:47:34;54.90;;;22.48;;
21539;SDS011;10931;52.164;5.518;2024-02-28T01:50:00;50.55;;;22.77;;
21539;SDS011;10931;52.164;5.518;2024-02-28T01:52:26;52.25;;;22.77;;
21539;SDS011;10931;52.164;5.518;2024-02-28T01:54:52;53.90;;;21.73;;
21539;SDS011;10931;52.164;5.518;2024-02-28T01:57:18;47.65;;;20.65;;
21539;SDS011;10931;52.164;5.518;2024-02-28T01:59:44;49.13;;;22.77;;
21539;SDS011;10931;52.164;5.518;2024-02-28T02:02:11;47.00;;;21.52;;
21539;SDS011;10931;52.164;5.518;2024-02-28T02:04:40;48.65;;;21.25;;
21539;SDS011;10931;52.164;5.518;2024-02-28T02:07:06;44.42;;;20.23;;
21539;SDS011;10931;52.164;5.518;2024-02-28T02:09:33;47.35;;;20.58;;
21539;SDS011;10931;52.164;5.518;2024-02-28T02:12:00;44.20;;;19.77;;
21539;SDS011;10931;52.164;5.518;2024-02-28T02:14:26;48.10;;;20.30;;
21539;SDS011;10931;52.164;5.518;2024-02-28T02:16:52;43.80;;;19.67;;
21539;SDS011;10931;52.164;5.518;2024-02-28T02:19:18;43.92;;;19.45;;
21539;SDS011;10931;52.164;5.518;2024-02-28T02:21:49;41.90;;;19.07;;
21539;SDS011;10931;52.164;5.518;2024-02-28T02:24:17;40.97;;;19.20;;
21539;SDS011;10931;52.164;5.518;2024-02-28T02:26:43;44.17;;;19.05;;
21539;SDS011;10931;52.164;5.518;2024-02-28T02:29:11;39.95;;;19.00;;
21539;SDS011;10931;52.164;5.518;2024-02-28T02:31:37;42.25;;;20.08;;
21539;SDS011;10931;52.164;5.518;2024-02-28T02:34:03;43.25;;;19.20;;
21539;SDS011;10931;52.164;5.518;2024-02-28T02:36:29;45.38;;;20.17;;
21539;SDS011;10931;52.164;5.518;2024-02-28T02:38:55;43.70;;;19.90;;
21539;SDS011;10931;52.164;5.518;2024-02-28T02:41:24;41.50;;;19.55;;
21539;SDS011;10931;52.164;5.518;2024-02-28T02:43:57;39.22;;;18.10;;
21539;SDS011;10931;52.164;5.518;2024-02-28T02:46:23;42.13;;;18.35;;
21539;SDS011;10931;52.164;5.518;2024-02-28T02:48:52;40.78;;;19.23;;
21539;SDS011;10931;52.164;5.518;2024-02-28T02:51:18;39.72;;;17.80;;
21539;SDS011;10931;52.164;5.518;2024-02-28T02:53:44;39.40;;;18.58;;
21539;SDS011;10931;52.164;5.518;2024-02-28T02:56:10;44.67;;;18.48;;
21539;SDS011;10931;52.164;5.518;2024-02-28T02:58:36;40.50;;;19.23;;
21539;SDS011;10931;52.164;5.518;2024-02-28T03:01:02;41.83;;;19.65;;
21539;SDS011;10931;52.164;5.518;2024-02-28T03:03:28;37.75;;;18.13;;
21539;SDS011;10931;52.164;5.518;2024-02-28T03:06:00;40.38;;;17.67;;
21539;SDS011;10931;52.164;5.518;2024-02-28T03:08:26;42.38;;;18.95;;
21539;SDS011;10931;52.164;5.518;2024-02-28T03:10:52;39.70;;;18.02;;
21539;SDS011;10931;52.164;5.518;2024-02-28T03:13:19;38.42;;;19.15;;
21539;SDS011;10931;52.164;5.518;2024-02-28T03:15:45;43.28;;;18.45;;
21539;SDS011;10931;52.164;5.518;2024-02-28T03:18:11;37.95;;;17.08;;
21539;SDS011;10931;52.164;5.518;2024-02-28T03:20:40;42.33;;;17.92;;
21539;SDS011;10931;52.164;5.518;2024-02-28T03:23:08;39.83;;;16.98;;
21539;SDS011;10931;52.164;5.518;2024-02-28T03:25:34;39.40;;;18.17;;
21539;SDS011;10931;52.164;5.518;2024-02-28T03:28:03;38.08;;;18.38;;
21539;SDS011;10931;52.164;5.518;2024-02-28T03:30:29;39.40;;;17.73;;
21539;SDS011;10931;52.164;5.518;2024-02-28T03:32:55;40.28;;;19.02;;
21539;SDS011;10931;52.164;5.518;2024-02-28T03:35:21;40.75;;;18.98;;
21539;SDS011;10931;52.164;5.518;2024-02-28T03:37:47;37.40;;;18.38;;
21539;SDS011;10931;52.164;5.518;2024-02-28T03:40:13;40.25;;;18.42;;
21539;SDS011;10931;52.164;5.518;2024-02-28T03:42:40;41.00;;;17.92;;
21539;SDS011;10931;52.164;5.518;2024-02-28T03:45:06;45.63;;;18.88;;
21539;SDS011;10931;52.164;5.518;2024-02-28T03:47:32;40.25;;;19.20;;
21539;SDS011;10931;52.164;5.518;2024-02-28T03:49:58;42.65;;;18.45;;
21539;SDS011;10931;52.164;5.518;2024-02-28T03:52:24;40.63;;;17.85;;
21539;SDS011;10931;52.164;5.518;2024-02-28T03:54:50;43.40;;;19.23;;
21539;SDS011;10931;52.164;5.518;2024-02-28T03:57:17;37.20;;;17.15;;
21539;SDS011;10931;52.164;5.518;2024-02-28T03:59:43;40.40;;;17.45;;
21539;SDS011;10931;52.164;5.518;2024-02-28T04:02:09;39.45;;;17.52;;
21539;SDS011;10931;52.164;5.518;2024-02-28T04:04:35;43.60;;;19.27;;
21539;SDS011;10931;52.164;5.518;2024-02-28T04:07:01;40.50;;;19.05;;
21539;SDS011;10931;52.164;5.518;2024-02-28T04:09:27;41.53;;;18.33;;
21539;SDS011;10931;52.164;5.518;2024-02-28T04:11:53;38.85;;;18.85;;
21539;SDS011;10931;52.164;5.518;2024-02-28T04:14:19;44.90;;;19.25;;
21539;SDS011;10931;52.164;5.518;2024-02-28T04:16:45;38.08;;;18.60;;
21539;SDS011;10931;52.164;5.518;2024-02-28T04:19:14;39.97;;;18.25;;
21539;SDS011;10931;52.164;5.518;2024-02-28T04:21:40;36.92;;;16.30;;
21539;SDS011;10931;52.164;5.518;2024-02-28T04:24:07;41.70;;;18.38;;
21539;SDS011;10931;52.164;5.518;2024-02-28T04:26:34;46.20;;;19.35;;
21539;SDS011;10931;52.164;5.518;2024-02-28T04:29:00;35.30;;;18.80;;
21539;SDS011;10931;52.164;5.518;2024-02-28T04:31:29;40.08;;;18.70;;
21539;SDS011;10931;52.164;5.518;2024-02-28T04:33:55;37.85;;;18.33;;
21539;SDS011;10931;52.164;5.518;2024-02-28T04:36:22;39.55;;;18.70;;
21539;SDS011;10931;52.164;5.518;2024-02-28T04:38:48;40.75;;;18.92;;
21539;SDS011;10931;52.164;5.518;2024-02-28T04:41:17;39.65;;;18.13;;
21539;SDS011;10931;52.164;5.518;2024-02-28T04:43:45;40.30;;;18.05;;
21539;SDS011;10931;52.164;5.518;2024-02-28T04:46:11;36.25;;;16.80;;
21539;SDS011;10931;52.164;5.518;2024-02-28T04:48:37;30.90;;;16.98;;
21539;SDS011;10931;52.164;5.518;2024-02-28T04:51:03;32.50;;;17.33;;
21539;SDS011;10931;52.164;5.518;2024-02-28T04:53:29;37.83;;;18.75;;
21539;SDS011;10931;52.164;5.518;2024-02-28T04:55:55;36.55;;;18.20;;
21539;SDS011;10931;52.164;5.518;2024-02-28T04:58:22;34.92;;;17.23;;
21539;SDS011;10931;52.164;5.518;2024-02-28T05:00:47;32.20;;;17.20;;
21539;SDS011;10931;52.164;5.518;2024-02-28T05:03:15;36.78;;;17.92;;
21539;SDS011;10931;52.164;5.518;2024-02-28T05:05:41;32.95;;;17.35;;
21539;SDS011;10931;52.164;5.518;2024-02-28T05:08:07;32.03;;;16.80;;
21539;SDS011;10931;52.164;5.518;2024-02-28T05:10:44;33.70;;;17.60;;
21539;SDS011;10931;52.164;5.518;2024-02-28T05:13:10;37.25;;;17.30;;
21539;SDS011;10931;52.164;5.518;2024-02-28T05:15:36;34.30;;;17.58;;
21539;SDS011;10931;52.164;5.518;2024-02-28T05:18:02;33.25;;;17.58;;
21539;SDS011;10931;52.164;5.518;2024-02-28T05:20:28;35.38;;;18.20;;
21539;SDS011;10931;52.164;5.518;2024-02-28T05:22:54;31.45;;;16.33;;
21539;SDS011;10931;52.164;5.518;2024-02-28T05:25:23;37.30;;;17.58;;
21539;SDS011;10931;52.164;5.518;2024-02-28T05:27:49;35.28;;;17.92;;
21539;SDS011;10931;52.164;5.518;2024-02-28T05:30:15;33.95;;;15.93;;
21539;SDS011;10931;52.164;5.518;2024-02-28T05:32:44;32.83;;;17.30;;
21539;SDS011;10931;52.164;5.518;2024-02-28T05:35:13;34.65;;;17.33;;
21539;SDS011;10931;52.164;5.518;2024-02-28T05:37:39;34.67;;;17.00;;
21539;SDS011;10931;52.164;5.518;2024-02-28T05:40:06;31.40;;;16.73;;
21539;SDS011;10931;52.164;5.518;2024-02-28T05:42:32;31.65;;;16.77;;
21539;SDS011;10931;52.164;5.518;2024-02-28T05:45:01;34.25;;;17.15;;
21539;SDS011;10931;52.164;5.518;2024-02-28T05:47:30;34.20;;;17.40;;
21539;SDS011;10931;52.164;5.518;2024-02-28T05:49:59;29.48;;;16.52;;
21539;SDS011;10931;52.164;5.518;2024-02-28T05:52:25;34.63;;;16.48;;
21539;SDS011;10931;52.164;5.518;2024-02-28T05:54:52;31.70;;;16.52;;
21539;SDS011;10931;52.164;5.518;2024-02-28T05:57:18;31.52;;;16.30;;
21539;SDS011;10931;52.164;5.518;2024-02-28T05:59:44;33.00;;;17.50;;
21539;SDS011;10931;52.164;5.518;2024-02-28T06:02:12;35.45;;;17.58;;
21539;SDS011;10931;52.164;5.518;2024-02-28T06:04:38;32.10;;;17.45;;
21539;SDS011;10931;52.164;5.518;2024-02-28T06:07:12;35.65;;;16.83;;
21539;SDS011;10931;52.164;5.518;2024-02-28T06:09:40;34.00;;;17.67;;
21539;SDS011;10931;52.164;5.518;2024-02-28T06:12:13;33.10;;;17.35;;
21539;SDS011;10931;52.164;5.518;2024-02-28T06:14:39;32.70;;;17.58;;
21539;SDS011;10931;52.164;5.518;2024-02-28T06:17:08;28.30;;;16.83;;
21539;SDS011;10931;52.164;5.518;2024-02-28T06:19:34;33.35;;;18.15;;
21539;SDS011;10931;52.164;5.518;2024-02-28T06:22:02;32.58;;;17.60;;
21539;SDS011;10931;52.164;5.518;2024-02-28T06:24:49;29.85;;;17.60;;
21539;SDS011;10931;52.164;5.518;2024-02-28T06:27:22;32.90;;;17.05;;
21539;SDS011;10931;52.164;5.518;2024-02-28T06:29:48;35.03;;;17.13;;
21539;SDS011;10931;52.164;5.518;2024-02-28T06:32:14;33.15;;;17.38;;
21539;SDS011;10931;52.164;5.518;2024-02-28T06:34:43;31.08;;;16.30;;
21539;SDS011;10931;52.164;5.518;2024-02-28T06:37:09;29.33;;;16.83;;
21539;SDS011;10931;52.164;5.518;2024-02-28T06:39:35;31.75;;;17.20;;
21539;SDS011;10931;52.164;5.518;2024-02-28T06:42:03;28.67;;;16.80;;
21539;SDS011;10931;52.164;5.518;2024-02-28T06:44:32;30.35;;;15.82;;
21539;SDS011;10931;52.164;5.518;2024-02-28T06:46:58;29.48;;;15.50;;
21539;SDS011;10931;52.164;5.518;2024-02-28T06:49:24;26.80;;;16.45;;
21539;SDS011;10931;52.164;5.518;2024-02-28T06:51:54;36.60;;;16.60;;
21539;SDS011;10931;52.164;5.518;2024-02-28T06:54:33;32.75;;;16.35;;
21539;SDS011;10931;52.164;5.518;2024-02-28T06:57:07;31.55;;;17.08;;
21539;SDS011;10931;52.164;5.518;2024-02-28T06:59:39;32.20;;;17.75;;
21539;SDS011;10931;52.164;5.518;2024-02-28T07:02:05;28.42;;;16.00;;
21539;SDS011;10931;52.164;5.518;2024-02-28T07:04:31;29.80;;;17.27;;
21539;SDS011;10931;52.164;5.518;2024-02-28T07:06:57;31.23;;;16.58;;
21539;SDS011;10931;52.164;5.518;2024-02-28T07:09:26;36.38;;;17.13;;
21539;SDS011;10931;52.164;5.518;2024-02-28T07:11:56;34.90;;;16.92;;
21539;SDS011;10931;52.164;5.518;2024-02-28T07:14:24;28.65;;;17.23;;
21539;SDS011;10931;52.164;5.518;2024-02-28T07:16:50;31.27;;;17.48;;
21539;SDS011;10931;52.164;5.518;2024-02-28T07:19:22;27.67;;;16.52;;
21539;SDS011;10931;52.164;5.518;2024-02-28T07:21:48;33.03;;;17.63;;
21539;SDS011;10931;52.164;5.518;2024-02-28T07:24:14;31.15;;;18.38;;
21539;SDS011;10931;52.164;5.518;2024-02-28T07:26:42;30.00;;;17.90;;
21539;SDS011;10931;52.164;5.518;2024-02-28T07:29:08;33.80;;;18.67;;
21539;SDS011;10931;52.164;5.518;2024-02-28T07:31:42;31.08;;;16.90;;
21539;SDS011;10931;52.164;5.518;2024-02-28T07:34:10;30.80;;;17.50;;
21539;SDS011;10931;52.164;5.518;2024-02-28T07:36:38;31.42;;;17.75;;
21539;SDS011;10931;52.164;5.518;2024-02-28T07:39:04;32.17;;;16.83;;
21539;SDS011;10931;52.164;5.518;2024-02-28T07:41:30;34.88;;;19.33;;
21539;SDS011;10931;52.164;5.518;2024-02-28T07:43:57;30.77;;;17.92;;
21539;SDS011;10931;52.164;5.518;2024-02-28T07:46:25;33.50;;;18.60;;
21539;SDS011;10931;52.164;5.518;2024-02-28T07:48:51;33.47;;;19.30;;
21539;SDS011;10931;52.164;5.518;2024-02-28T07:51:17;37.22;;;20.10;;
21539;SDS011;10931;52.164;5.518;2024-02-28T07:53:47;41.72;;;20.45;;
21539;SDS011;10931;52.164;5.518;2024-02-28T07:56:18;36.15;;;19.50;;
21539;SDS011;10931;52.164;5.518;2024-02-28T07:58:45;31.35;;;18.30;;
21539;SDS011;10931;52.164;5.518;2024-02-28T08:01:11;34.10;;;19.50;;
21539;SDS011;10931;52.164;5.518;2024-02-28T08:03:37;31.30;;;18.98;;
21539;SDS011;10931;52.164;5.518;2024-02-28T08:06:04;35.92;;;18.38;;
21539;SDS011;10931;52.164;5.518;2024-02-28T08:08:36;33.88;;;19.45;;
21539;SDS011;10931;52.164;5.518;2024-02-28T08:11:03;33.65;;;19.00;;
21539;SDS011;10931;52.164;5.518;2024-02-28T08:13:29;38.38;;;20.08;;
21539;SDS011;10931;52.164;5.518;2024-02-28T08:15:57;34.38;;;19.75;;
21539;SDS011;10931;52.164;5.518;2024-02-28T08:18:23;43.97;;;20.58;;
21539;SDS011;10931;52.164;5.518;2024-02-28T08:20:49;32.55;;;18.75;;
21539;SDS011;10931;52.164;5.518;2024-02-28T08:23:17;37.42;;;20.02;;
21539;SDS011;10931;52.164;5.518;2024-02-28T08:25:51;42.20;;;21.67;;
21539;SDS011;10931;52.164;5.518;2024-02-28T08:28:21;38.70;;;21.70;;
21539;SDS011;10931;52.164;5.518;2024-02-28T08:30:49;38.00;;;21.95;;
21539;SDS011;10931;52.164;5.518;2024-02-28T08:33:16;36.13;;;21.58;;
21539;SDS011;10931;52.164;5.518;2024-02-28T08:35:52;38.40;;;22.00;;
21539;SDS011;10931;52.164;5.518;2024-02-28T08:38:23;35.95;;;21.33;;
21539;SDS011;10931;52.164;5.518;2024-02-28T08:40:52;43.45;;;23.13;;
21539;SDS011;10931;52.164;5.518;2024-02-28T08:43:18;36.45;;;21.75;;
21539;SDS011;10931;52.164;5.518;2024-02-28T08:45:44;36.65;;;21.77;;
21539;SDS011;10931;52.164;5.518;2024-02-28T08:48:10;40.47;;;21.65;;
21539;SDS011;10931;52.164;5.518;2024-02-28T08:50:39;37.03;;;21.73;;
21539;SDS011;10931;52.164;5.518;2024-02-28T08:53:05;38.55;;;21.52;;
21539;SDS011;10931;52.164;5.518;2024-02-28T08:55:31;44.63;;;23.27;;
21539;SDS011;10931;52.164;5.518;2024-02-28T08:57:57;36.83;;;22.85;;
21539;SDS011;10931;52.164;5.518;2024-02-28T09:00:23;38.30;;;23.73;;
21539;SDS011;10931;52.164;5.518;2024-02-28T09:02:56;35.40;;;21.75;;
21539;SDS011;10931;52.164;5.518;2024-02-28T09:05:23;39.10;;;22.33;;
21539;SDS011;10931;52.164;5.518;2024-02-28T09:07:51;38.08;;;23.83;;
21539;SDS011;10931;52.164;5.518;2024-02-28T09:10:22;45.83;;;24.25;;
21539;SDS011;10931;52.164;5.518;2024-02-28T09:12:51;37.40;;;22.10;;
21539;SDS011;10931;52.164;5.518;2024-02-28T09:15:17;44.47;;;24.88;;
21539;SDS011;10931;52.164;5.518;2024-02-28T09:17:46;42.00;;;25.00;;
21539;SDS011;10931;52.164;5.518;2024-02-28T09:20:14;37.90;;;24.25;;
21539;SDS011;10931;52.164;5.518;2024-02-28T09:22:43;44.55;;;24.27;;
21539;SDS011;10931;52.164;5.518;2024-02-28T09:25:13;39.88;;;25.35;;
21539;SDS011;10931;52.164;5.518;2024-02-28T09:27:43;46.35;;;25.10;;
21539;SDS011;10931;52.164;5.518;2024-02-28T09:30:09;45.63;;;25.63;;
21539;SDS011;10931;52.164;5.518;2024-02-28T09:32:35;40.63;;;25.67;;
21539;SDS011;10931;52.164;5.518;2024-02-28T09:35:04;46.42;;;25.50;;
21539;SDS011;10931;52.164;5.518;2024-02-28T09:37:30;46.10;;;25.80;;
21539;SDS011;10931;52.164;5.518;2024-02-28T09:39:56;48.80;;;25.58;;
21539;SDS011;10931;52.164;5.518;2024-02-28T09:42:30;48.75;;;25.45;;
21539;SDS011;10931;52.164;5.518;2024-02-28T09:45:10;40.28;;;24.65;;
21539;SDS011;10931;52.164;5.518;2024-02-28T09:48:02;44.75;;;24.90;;
21539;SDS011;10931;52.164;5.518;2024-02-28T09:50:38;49.38;;;25.10;;
21539;SDS011;10931;52.164;5.518;2024-02-28T09:53:07;47.30;;;25.75;;
21539;SDS011;10931;52.164;5.518;2024-02-28T09:55:33;43.45;;;25.75;;
21539;SDS011;10931;52.164;5.518;2024-02-28T09:57:59;49.03;;;27.08;;
21539;SDS011;10931;52.164;5.518;2024-02-28T10:00:31;47.95;;;26.42;;
21539;SDS011;10931;52.164;5.518;2024-02-28T10:03:20;50.47;;;26.83;;
21539;SDS011;10931;52.164;5.518;2024-02-28T10:05:46;44.92;;;25.50;;
21539;SDS011;10931;52.164;5.518;2024-02-28T10:08:18;48.33;;;26.85;;
21539;SDS011;10931;52.164;5.518;2024-02-28T10:10:54;48.30;;;26.20;;
21539;SDS011;10931;52.164;5.518;2024-02-28T10:13:28;48.70;;;27.13;;
21539;SDS011;10931;52.164;5.518;2024-02-28T10:15:54;56.03;;;28.48;;
21539;SDS011;10931;52.164;5.518;2024-02-28T10:18:44;47.33;;;25.92;;
21539;SDS011;10931;52.164;5.518;2024-02-28T10:21:10;48.25;;;27.80;;
21539;SDS011;10931;52.164;5.518;2024-02-28T10:23:43;48.33;;;27.08;;
21539;SDS011;10931;52.164;5.518;2024-02-28T10:26:12;50.90;;;27.30;;
21539;SDS011;10931;52.164;5.518;2024-02-28T10:28:39;47.72;;;27.73;;
21539;SDS011;10931;52.164;5.518;2024-02-28T10:31:06;45.00;;;26.90;;
21539;SDS011;10931;52.164;5.518;2024-02-28T10:33:32;49.58;;;28.58;;
21539;SDS011;10931;52.164;5.518;2024-02-28T10:36:00;49.20;;;27.13;;
21539;SDS011;10931;52.164;5.518;2024-02-28T10:38:35;54.17;;;30.38;;
21539;SDS011;10931;52.164;5.518;2024-02-28T10:41:04;52.08;;;29.23;;
21539;SDS011;10931;52.164;5.518;2024-02-28T10:43:30;54.75;;;29.15;;
21539;SDS011;10931;52.164;5.518;2024-02-28T10:46:02;49.42;;;27.38;;
21539;SDS011;10931;52.164;5.518;2024-02-28T10:48:28;51.30;;;27.55;;
21539;SDS011;10931;52.164;5.518;2024-02-28T10:50:54;50.40;;;29.00;;
21539;SDS011;10931;52.164;5.518;2024-02-28T10:53:22;55.67;;;28.60;;
21539;SDS011;10931;52.164;5.518;2024-02-28T10:55:51;55.08;;;28.77;;
21539;SDS011;10931;52.164;5.518;2024-02-28T10:58:21;49.35;;;28.60;;
21539;SDS011;10931;52.164;5.518;2024-02-28T11:00:51;50.40;;;28.85;;
21539;SDS011;10931;52.164;5.518;2024-02-28T11:03:17;48.47;;;27.83;;
21539;SDS011;10931;52.164;5.518;2024-02-28T11:05:49;47.35;;;27.05;;
21539;SDS011;10931;52.164;5.518;2024-02-28T11:08:22;48.05;;;28.17;;
21539;SDS011;10931;52.164;5.518;2024-02-28T11:10:58;49.53;;;29.45;;
21539;SDS011;10931;52.164;5.518;2024-02-28T11:13:29;49.60;;;29.02;;
21539;SDS011;10931;52.164;5.518;2024-02-28T11:16:07;55.38;;;29.77;;
21539;SDS011;10931;52.164;5.518;2024-02-28T11:18:33;53.80;;;28.55;;
21539;SDS011;10931;52.164;5.518;2024-02-28T11:20:59;53.53;;;27.40;;
21539;SDS011;10931;52.164;5.518;2024-02-28T11:23:42;49.22;;;28.50;;
21539;SDS011;10931;52.164;5.518;2024-02-28T11:26:12;54.38;;;30.40;;
21539;SDS011;10931;52.164;5.518;2024-02-28T11:28:38;49.92;;;27.90;;
21539;SDS011;10931;52.164;5.518;2024-02-28T11:31:07;46.78;;;27.25;;
21539;SDS011;10931;52.164;5.518;2024-02-28T11:33:39;54.17;;;27.77;;
21539;SDS011;10931;52.164;5.518;2024-02-28T11:36:07;54.28;;;28.85;;
21539;SDS011;10931;52.164;5.518;2024-02-28T11:38:36;55.58;;;29.60;;
21539;SDS011;10931;52.164;5.518;2024-02-28T11:41:03;52.15;;;28.05;;
21539;SDS011;10931;52.164;5.518;2024-02-28T11:43:35;50.35;;;28.42;;
21539;SDS011;10931;52.164;5.518;2024-02-28T11:46:15;50.20;;;25.33;;
21539;SDS011;10931;52.164;5.518;2024-02-28T11:48:43;51.17;;;26.48;;
21539;SDS011;10931;52.164;5.518;2024-02-28T11:51:09;46.83;;;26.90;;
21539;SDS011;10931;52.164;5.518;2024-02-28T11:53:35;47.55;;;26.63;;
21539;SDS011;10931;52.164;5.518;2024-02-28T11:56:01;51.50;;;27.38;;
21539;SDS011;10931;52.164;5.518;2024-02-28T11:58:28;47.92;;;26.52;;
21539;SDS011;10931;52.164;5.518;2024-02-28T12:00:54;45.53;;;26.52;;
21539;SDS011;10931;52.164;5.518;2024-02-28T12:03:24;46.83;;;25.42;;
21539;SDS011;10931;52.164;5.518;2024-02-28T12:05:51;45.67;;;26.08;;
21539;SDS011;10931;52.164;5.518;2024-02-28T12:08:21;50.45;;;24.90;;
21539;SDS011;10931;52.164;5.518;2024-02-28T12:10:47;47.47;;;26.13;;
21539;SDS011;10931;52.164;5.518;2024-02-28T12:13:17;42.47;;;24.77;;
21539;SDS011;10931;52.164;5.518;2024-02-28T12:15:56;44.35;;;25.02;;
21539;SDS011;10931;52.164;5.518;2024-02-28T12:18:46;51.47;;;26.10;;
21539;SDS011;10931;52.164;5.518;2024-02-28T12:21:14;46.00;;;25.17;;
21539;SDS011;10931;52.164;5.518;2024-02-28T12:23:40;44.65;;;24.75;;
21539;SDS011;10931;52.164;5.518;2024-02-28T12:26:09;47.97;;;25.05;;
21539;SDS011;10931;52.164;5.518;2024-02-28T12:28:35;51.53;;;25.55;;
21539;SDS011;10931;52.164;5.518;2024-02-28T12:31:01;49.22;;;25.77;;
21539;SDS011;10931;52.164;5.518;2024-02-28T12:33:27;49.15;;;25.63;;
21539;SDS011;10931;52.164;5.518;2024-02-28T12:36:00;49.85;;;24.90;;
21539;SDS011;10931;52.164;5.518;2024-02-28T12:38:36;54.92;;;25.77;;
21539;SDS011;10931;52.164;5.518;2024-02-28T12:41:10;45.95;;;24.70;;
21539;SDS011;10931;52.164;5.518;2024-02-28T12:43:44;43.97;;;24.13;;
21539;SDS011;10931;52.164;5.518;2024-02-28T12:46:15;41.15;;;24.60;;
21539;SDS011;10931;52.164;5.518;2024-02-28T12:48:47;44.92;;;23.50;;
21539;SDS011;10931;52.164;5.518;2024-02-28T12:54:07;54.78;;;24.38;;
21539;SDS011;10931;52.164;5.518;2024-02-28T12:56:47;42.50;;;23.98;;
21539;SDS011;10931;52.164;5.518;2024-02-28T12:59:31;40.00;;;22.98;;
21539;SDS011;10931;52.164;5.518;2024-02-28T13:01:58;37.38;;;21.17;;
21539;SDS011;10931;52.164;5.518;2024-02-28T13:04:26;44.40;;;22.65;;
21539;SDS011;10931;52.164;5.518;2024-02-28T13:07:07;40.17;;;22.35;;
21539;SDS011;10931;52.164;5.518;2024-02-28T13:09:36;39.92;;;22.50;;
21539;SDS011;10931;52.164;5.518;2024-02-28T13:12:05;41.63;;;23.23;;
21539;SDS011;10931;52.164;5.518;2024-02-28T13:14:38;40.03;;;21.98;;
21539;SDS011;10931;52.164;5.518;2024-02-28T13:17:09;37.80;;;21.50;;
21539;SDS011;10931;52.164;5.518;2024-02-28T13:19:44;39.10;;;22.42;;
21539;SDS011;10931;52.164;5.518;2024-02-28T13:22:16;40.67;;;20.83;;
21539;SDS011;10931;52.164;5.518;2024-02-28T13:24:41;39.63;;;20.38;;
21539;SDS011;10931;52.164;5.518;2024-02-28T13:27:10;42.55;;;22.35;;
21539;SDS011;10931;52.164;5.518;2024-02-28T13:29:36;44.55;;;22.35;;
21539;SDS011;10931;52.164;5.518;2024-02-28T13:32:05;44.55;;;20.88;;
21539;SDS011;10931;52.164;5.518;2024-02-28T13:34:34;38.50;;;23.52;;
21539;SDS011;10931;52.164;5.518;2024-02-28T13:37:01;47.22;;;23.80;;
21539;SDS011;10931;52.164;5.518;2024-02-28T13:39:27;40.75;;;24.42;;
21539;SDS011;10931;52.164;5.518;2024-02-28T13:41:57;49.17;;;27.20;;
21539;SDS011;10931;52.164;5.518;2024-02-28T13:44:24;53.30;;;28.70;;
21539;SDS011;10931;52.164;5.518;2024-02-28T13:46:50;52.58;;;28.80;;
21539;SDS011;10931;52.164;5.518;2024-02-28T13:49:19;52.33;;;29.83;;
21539;SDS011;10931;52.164;5.518;2024-02-28T13:51:45;50.95;;;28.80;;
21539;SDS011;10931;52.164;5.518;2024-02-28T13:54:14;49.92;;;26.85;;
21539;SDS011;10931;52.164;5.518;2024-02-28T13:56:40;52.78;;;27.00;;
21539;SDS011;10931;52.164;5.518;2024-02-28T13:59:06;40.65;;;24.75;;
21539;SDS011;10931;52.164;5.518;2024-02-28T14:01:33;45.10;;;24.10;;
21539;SDS011;10931;52.164;5.518;2024-02-28T14:03:59;38.45;;;24.00;;
21539;SDS011;10931;52.164;5.518;2024-02-28T14:06:25;43.70;;;24.23;;
21539;SDS011;10931;52.164;5.518;2024-02-28T14:08:51;41.47;;;24.10;;
21539;SDS011;10931;52.164;5.518;2024-02-28T14:11:18;42.70;;;23.77;;
21539;SDS011;10931;52.164;5.518;2024-02-28T14:13:44;40.40;;;23.83;;
21539;SDS011;10931;52.164;5.518;2024-02-28T14:16:10;36.58;;;23.02;;
21539;SDS011;10931;52.164;5.518;2024-02-28T14:18:36;40.60;;;23.95;;
21539;SDS011;10931;52.164;5.518;2024-02-28T14:21:03;36.28;;;21.67;;
21539;SDS011;10931;52.164;5.518;2024-02-28T14:23:31;39.42;;;22.85;;
21539;SDS011;10931;52.164;5.518;2024-02-28T14:25:59;38.28;;;21.75;;
21539;SDS011;10931;52.164;5.518;2024-02-28T14:28:49;35.08;;;20.80;;
21539;SDS011;10931;52.164;5.518;2024-02-28T14:31:32;33.38;;;19.27;;